createdAt,value
2018-09-27T00:00:21.128Z,102650.59
2018-09-27T00:02:50.012Z,102648.71
2018-09-27T00:05:18.847Z,102651.35
2018-09-27T00:07:47.709Z,102645.97
2018-09-27T00:10:16.587Z,102651.89
2018-09-27T00:12:45.447Z,102648.20
2018-09-27T00:15:14.288Z,102643.55
2018-09-27T00:17:43.127Z,102646.94
2018-09-27T00:20:11.961Z,102643.78
2018-09-27T00:22:40.808Z,102650.09
2018-09-27T00:25:09.633Z,102652.58
2018-09-27T00:27:38.490Z,102654.87
2018-09-27T00:30:07.310Z,102639.63
2018-09-27T00:32:36.135Z,102642.31
2018-09-27T00:35:05.110Z,102643.52
2018-09-27T00:37:33.935Z,102642.75
2018-09-27T00:40:02.768Z,102641.39
2018-09-27T00:42:31.644Z,102639.11
2018-09-27T00:45:00.461Z,102639.48
2018-09-27T00:47:29.313Z,102635.12
2018-09-27T00:49:58.126Z,102632.85
2018-09-27T00:52:26.987Z,102622.68
2018-09-27T00:54:55.820Z,102628.47
2018-09-27T00:57:24.664Z,102626.34
2018-09-27T00:59:53.538Z,102626.78
2018-09-27T01:02:22.350Z,102632.89
2018-09-27T01:04:51.230Z,102625.75
2018-09-27T01:07:20.056Z,102621.44
2018-09-27T01:09:48.908Z,102620.67
2018-09-27T01:12:17.740Z,102626.11
2018-09-27T01:14:46.735Z,102625.19
2018-09-27T01:17:15.571Z,102626.20
2018-09-27T01:19:44.430Z,102624.78
2018-09-27T01:22:13.255Z,102618.67
2018-09-27T01:24:42.116Z,102615.03
2018-09-27T01:27:10.952Z,102620.47
2018-09-27T01:29:39.767Z,102623.14
2018-09-27T01:32:08.621Z,102614.40
2018-09-27T01:34:37.452Z,102606.86
2018-09-27T01:37:06.364Z,102607.50
2018-09-27T01:39:35.203Z,102601.47
2018-09-27T01:42:04.019Z,102603.58
2018-09-27T01:44:32.871Z,102603.68
2018-09-27T01:47:01.735Z,102606.58
2018-09-27T01:49:30.564Z,102597.44
2018-09-27T01:51:59.401Z,102599.95
2018-09-27T01:54:28.269Z,102595.57
2018-09-27T01:56:57.107Z,102585.67
2018-09-27T01:59:25.927Z,102586.69
2018-09-27T02:01:54.778Z,102583.58
2018-09-27T02:04:23.631Z,102582.92
2018-09-27T02:06:52.478Z,102583.00
2018-09-27T02:09:21.303Z,102576.09
2018-09-27T02:11:50.158Z,102573.28
2018-09-27T02:14:19.080Z,102568.45
2018-09-27T02:16:48.002Z,102570.41
2018-09-27T02:19:17.105Z,102557.06
2018-09-27T02:21:46.003Z,102561.45
2018-09-27T02:24:14.870Z,102570.83
2018-09-27T02:26:43.708Z,102561.84
2018-09-27T02:29:12.555Z,102565.32
2018-09-27T02:31:41.422Z,102562.18
2018-09-27T02:34:10.238Z,102557.33
2018-09-27T02:36:39.091Z,102557.08
2018-09-27T02:39:09.198Z,102560.69
2018-09-27T02:41:38.326Z,102564.33
2018-09-27T02:44:07.278Z,102565.89
2018-09-27T02:46:36.108Z,102559.77
2018-09-27T02:49:04.989Z,102554.11
2018-09-27T02:51:33.834Z,102551.44
2018-09-27T02:54:02.666Z,102555.34
2018-09-27T02:56:31.497Z,102549.18
2018-09-27T02:59:00.319Z,102550.73
2018-09-27T03:01:29.164Z,102543.61
2018-09-27T03:03:58.013Z,102544.20
2018-09-27T03:06:26.831Z,102543.81
2018-09-27T03:08:55.685Z,102540.06
2018-09-27T03:11:24.504Z,102537.35
2018-09-27T03:13:53.425Z,102539.27
2018-09-27T03:16:22.170Z,102541.13
2018-09-27T03:18:51.026Z,102532.11
2018-09-27T03:21:19.845Z,102533.75
2018-09-27T03:23:48.715Z,102526.30
2018-09-27T03:26:17.543Z,102528.86
2018-09-27T03:28:46.396Z,102526.06
2018-09-27T03:31:15.240Z,102527.62
2018-09-27T03:33:44.090Z,102525.52
2018-09-27T03:36:12.936Z,102527.34
2018-09-27T03:38:41.770Z,102527.67
2018-09-27T03:41:10.655Z,102522.05
2018-09-27T03:43:39.453Z,102520.45
2018-09-27T03:46:08.308Z,102519.60
2018-09-27T03:48:37.160Z,102516.73
2018-09-27T03:51:06.276Z,102514.84
2018-09-27T03:53:35.137Z,102515.92
2018-09-27T03:56:03.985Z,102513.59
2018-09-27T03:58:32.865Z,102506.59
2018-09-27T04:01:01.698Z,102506.92
2018-09-27T04:03:30.546Z,102510.16
2018-09-27T04:05:59.361Z,102510.03
2018-09-27T04:08:28.314Z,102515.75
2018-09-27T04:10:57.390Z,102510.80
2018-09-27T04:13:26.237Z,102514.70
2018-09-27T04:15:55.197Z,102510.77
2018-09-27T04:18:23.920Z,102508.32
2018-09-27T04:20:53.359Z,102503.48
2018-09-27T04:23:23.398Z,102505.22
2018-09-27T04:25:52.699Z,102514.11
2018-09-27T04:28:22.014Z,102496.65
2018-09-27T04:30:50.857Z,102498.53
2018-09-27T04:33:19.715Z,102494.20
2018-09-27T04:35:48.537Z,102489.28
2018-09-27T04:38:17.374Z,102498.20
2018-09-27T04:40:46.200Z,102501.20
2018-09-27T04:43:15.014Z,102487.63
2018-09-27T04:45:43.876Z,102487.84
2018-09-27T04:48:12.686Z,102491.92
2018-09-27T04:50:41.518Z,102488.61
2018-09-27T04:53:10.335Z,102497.23
2018-09-27T04:55:39.180Z,102496.65
2018-09-27T04:58:08.011Z,102495.02
2018-09-27T05:00:36.938Z,102493.27
2018-09-27T05:03:05.855Z,102485.60
2018-09-27T05:05:34.696Z,102490.17
2018-09-27T05:08:03.548Z,102485.57
2018-09-27T05:10:32.377Z,102487.52
2018-09-27T05:13:01.293Z,102489.86
2018-09-27T05:15:30.204Z,102483.83
2018-09-27T05:17:58.974Z,102480.03
2018-09-27T05:20:27.841Z,102481.11
2018-09-27T05:22:56.689Z,102471.67
2018-09-27T05:25:25.531Z,102474.31
2018-09-27T05:27:54.431Z,102478.36
2018-09-27T05:30:23.286Z,102484.77
2018-09-27T05:32:52.150Z,102481.77
2018-09-27T05:35:21.029Z,102480.37
2018-09-27T05:37:49.893Z,102483.01
2018-09-27T05:40:18.752Z,102474.92
2018-09-27T05:42:47.553Z,102460.24
2018-09-27T05:45:16.403Z,102472.85
2018-09-27T05:47:45.245Z,102474.20
2018-09-27T05:50:14.086Z,102480.69
2018-09-27T05:52:42.902Z,102479.48
2018-09-27T05:55:11.738Z,102479.23
2018-09-27T05:57:40.588Z,102479.16
2018-09-27T06:00:09.400Z,102472.56
2018-09-27T06:02:38.256Z,102467.30
2018-09-27T06:05:07.158Z,102468.16
2018-09-27T06:07:35.986Z,102469.86
2018-09-27T06:10:04.942Z,102466.03
2018-09-27T06:12:33.830Z,102470.39
2018-09-27T06:15:02.668Z,102472.47
2018-09-27T06:17:31.517Z,102467.52
2018-09-27T06:20:00.352Z,102478.77
2018-09-27T06:22:29.209Z,102474.70
2018-09-27T06:24:58.046Z,102467.42
2018-09-27T06:27:26.926Z,102473.54
2018-09-27T06:29:55.709Z,102469.75
2018-09-27T06:32:24.568Z,102468.72
2018-09-27T06:34:53.399Z,102465.25
2018-09-27T06:37:22.289Z,102461.39
2018-09-27T06:39:51.115Z,102464.70
2018-09-27T06:42:19.941Z,102463.63
2018-09-27T06:44:48.770Z,102459.44
2018-09-27T06:47:17.594Z,102469.16
2018-09-27T06:49:46.500Z,102459.30
2018-09-27T06:52:15.333Z,102468.03
2018-09-27T06:54:44.257Z,102460.56
2018-09-27T06:57:13.006Z,102465.58
2018-09-27T06:59:41.861Z,102464.43
2018-09-27T07:02:10.672Z,102455.45
2018-09-27T07:04:39.511Z,102460.60
2018-09-27T07:07:08.365Z,102463.03
2018-09-27T07:09:37.187Z,102462.02
2018-09-27T07:12:06.040Z,102459.06
2018-09-27T07:14:34.905Z,102457.51
2018-09-27T07:17:03.674Z,102452.69
2018-09-27T07:19:32.520Z,102447.16
2018-09-27T07:22:01.361Z,102448.65
2018-09-27T07:24:30.182Z,102440.97
2018-09-27T07:26:59.076Z,102441.56
2018-09-27T07:29:27.831Z,102448.89
2018-09-27T07:31:56.673Z,102442.74
2018-09-27T07:34:25.467Z,102447.07
2018-09-27T07:36:54.306Z,102440.73
2018-09-27T07:39:23.174Z,102434.05
2018-09-27T07:41:52.007Z,102426.85
2018-09-27T07:44:20.826Z,102429.22
2018-09-27T07:46:49.661Z,102431.55
2018-09-27T07:49:18.516Z,102435.14
2018-09-27T07:51:47.377Z,102432.92
2018-09-27T07:54:16.227Z,102434.52
2018-09-27T07:56:45.070Z,102432.38
2018-09-27T07:59:13.909Z,102431.12
2018-09-27T08:01:42.737Z,102425.46
2018-09-27T08:04:11.617Z,102427.45
2018-09-27T08:06:40.430Z,102425.95
2018-09-27T08:09:09.808Z,102426.89
2018-09-27T08:11:39.479Z,102422.33
2018-09-27T08:14:08.610Z,102424.98
2018-09-27T08:16:37.502Z,102427.84
2018-09-27T08:19:06.322Z,102431.16
2018-09-27T08:21:35.181Z,102434.67
2018-09-27T08:24:04.161Z,102431.95
2018-09-27T08:26:32.950Z,102431.89
2018-09-27T08:29:01.742Z,102430.58
2018-09-27T08:31:30.616Z,102422.06
2018-09-27T08:33:59.476Z,102426.08
2018-09-27T08:36:28.353Z,102427.75
2018-09-27T08:38:57.210Z,102420.47
2018-09-27T08:41:26.033Z,102416.90
2018-09-27T08:43:54.885Z,102417.53
2018-09-27T08:46:23.719Z,102407.00
2018-09-27T08:48:52.577Z,102407.13
2018-09-27T08:51:21.416Z,102396.78
2018-09-27T08:53:50.278Z,102405.16
2018-09-27T08:56:19.221Z,102396.45
2018-09-27T08:58:47.999Z,102388.07
2018-09-27T09:01:16.857Z,102391.37
2018-09-27T09:03:45.794Z,102387.19
2018-09-27T09:06:14.588Z,102381.56
2018-09-27T09:08:43.441Z,102377.31
2018-09-27T09:11:12.296Z,102372.81
2018-09-27T09:13:41.251Z,102373.84
2018-09-27T09:16:10.048Z,102370.65
2018-09-27T09:18:38.890Z,102370.14
2018-09-27T09:21:08.231Z,102359.36
2018-09-27T09:23:37.165Z,102358.76
2018-09-27T09:26:06.074Z,102354.77
2018-09-27T09:28:35.011Z,102346.48
2018-09-27T09:31:03.787Z,102341.19
2018-09-27T09:33:32.626Z,102342.52
2018-09-27T09:36:01.487Z,102338.65
2018-09-27T09:38:30.269Z,102339.48
2018-09-27T09:40:59.114Z,102335.69
2018-09-27T09:43:27.965Z,102333.86
2018-09-27T09:45:56.818Z,102320.80
2018-09-27T09:48:25.658Z,102315.73
2018-09-27T09:50:54.513Z,102317.55
2018-09-27T09:53:23.360Z,102302.73
2018-09-27T09:55:52.160Z,102296.36
2018-09-27T09:58:21.108Z,102297.14
2018-09-27T10:00:49.941Z,102293.34
2018-09-27T10:03:18.773Z,102291.92
2018-09-27T10:05:47.613Z,102289.56
2018-09-27T10:08:16.458Z,102280.43
2018-09-27T10:10:45.273Z,102292.06
2018-09-27T10:13:14.141Z,102282.38
2018-09-27T10:15:42.989Z,102279.09
2018-09-27T10:18:11.855Z,102274.74
2018-09-27T10:20:40.694Z,102281.26
2018-09-27T10:23:10.014Z,102277.84
2018-09-27T10:25:39.076Z,102273.99
2018-09-27T10:28:07.916Z,102267.75
2018-09-27T10:30:36.743Z,102261.89
2018-09-27T10:33:05.673Z,102261.17
2018-09-27T10:35:34.454Z,102269.86
2018-09-27T10:38:03.545Z,102262.91
2018-09-27T10:40:32.661Z,102257.67
2018-09-27T10:43:01.728Z,102263.66
2018-09-27T10:45:30.674Z,102249.61
2018-09-27T10:47:59.515Z,102251.38
2018-09-27T10:50:28.371Z,102252.73
2018-09-27T10:52:57.209Z,102249.95
2018-09-27T10:55:26.054Z,102243.87
2018-09-27T10:57:54.881Z,102235.23
2018-09-27T11:00:24.277Z,102237.23
2018-09-27T11:02:53.504Z,102230.34
2018-09-27T11:05:22.329Z,102227.27
2018-09-27T11:07:51.281Z,102232.62
2018-09-27T11:10:20.125Z,102221.48
2018-09-27T11:12:48.992Z,102222.50
2018-09-27T11:15:17.826Z,102224.47
2018-09-27T11:17:46.674Z,102211.33
2018-09-27T11:20:15.514Z,102208.92
2018-09-27T11:22:44.379Z,102201.70
2018-09-27T11:25:13.217Z,102190.53
2018-09-27T11:27:42.111Z,102187.66
2018-09-27T11:30:28.478Z,102181.67
2018-09-27T11:32:57.377Z,102165.78
2018-09-27T11:35:26.161Z,102164.06
2018-09-27T11:37:55.037Z,102160.42
2018-09-27T11:40:23.896Z,102163.77
2018-09-27T11:42:52.800Z,102153.30
2018-09-27T11:45:21.562Z,102153.80
2018-09-27T11:47:50.379Z,102155.17
2018-09-27T11:50:19.344Z,102157.98
2018-09-27T11:52:48.069Z,102153.06
2018-09-27T11:55:16.910Z,102143.76
2018-09-27T11:57:45.743Z,102138.55
2018-09-27T12:00:15.184Z,102145.39
2018-09-27T12:02:44.018Z,102140.86
2018-09-27T12:05:12.824Z,102143.52
2018-09-27T12:07:41.699Z,102131.66
2018-09-27T12:10:10.504Z,102128.36
2018-09-27T12:12:39.328Z,102127.92
2018-09-27T12:15:08.534Z,102125.67
2018-09-27T12:17:37.432Z,102117.94
2018-09-27T12:20:06.284Z,102119.99
2018-09-27T12:22:35.043Z,102116.17
2018-09-27T12:25:03.927Z,102104.15
2018-09-27T12:27:32.792Z,102103.72
2018-09-27T12:30:01.636Z,102098.48
2018-09-27T12:32:30.479Z,102096.67
2018-09-27T12:34:59.310Z,102091.61
2018-09-27T12:37:28.163Z,102091.34
2018-09-27T12:39:56.999Z,102085.09
2018-09-27T12:42:25.849Z,102076.91
2018-09-27T12:44:54.706Z,102076.19
2018-09-27T12:47:23.527Z,102075.47
2018-09-27T12:49:52.347Z,102076.85
2018-09-27T12:52:21.427Z,102065.51
2018-09-27T12:54:49.992Z,102067.61
2018-09-27T12:57:18.823Z,102062.16
2018-09-27T12:59:47.688Z,102066.56
2018-09-27T13:02:16.642Z,102055.77
2018-09-27T13:04:45.339Z,102054.96
2018-09-27T13:07:14.175Z,102044.80
2018-09-27T13:09:43.192Z,102041.06
2018-09-27T13:12:11.922Z,102041.53
2018-09-27T13:14:40.775Z,102039.06
2018-09-27T13:17:09.695Z,102033.86
2018-09-27T13:19:38.649Z,102018.41
2018-09-27T13:22:07.326Z,102012.24
2018-09-27T13:24:36.301Z,102015.30
2018-09-27T13:27:05.165Z,102014.53
2018-09-27T13:29:33.911Z,102011.58
2018-09-27T13:32:02.900Z,102002.33
2018-09-27T13:34:31.682Z,101996.02
2018-09-27T13:37:00.579Z,101996.48
2018-09-27T13:39:29.363Z,101992.44
2018-09-27T13:41:58.190Z,101979.08
2018-09-27T13:44:27.009Z,101984.28
2018-09-27T13:46:55.855Z,101980.41
2018-09-27T13:49:24.670Z,101978.22
2018-09-27T13:51:53.536Z,101984.56
2018-09-27T13:54:22.359Z,101970.30
2018-09-27T13:56:51.220Z,101968.86
2018-09-27T13:59:20.025Z,101967.95
2018-09-27T14:01:48.861Z,101961.61
2018-09-27T14:04:17.666Z,101958.41
2018-09-27T14:06:46.517Z,101954.88
2018-09-27T14:09:15.328Z,101947.14
2018-09-27T14:11:44.208Z,101943.62
2018-09-27T14:14:13.032Z,101942.58
2018-09-27T14:16:41.856Z,101937.77
2018-09-27T14:19:10.674Z,101935.41
2018-09-27T14:21:39.534Z,101932.39
2018-09-27T14:24:08.359Z,101927.22
2018-09-27T14:26:37.222Z,101914.66
2018-09-27T14:29:06.165Z,101924.45
2018-09-27T14:31:34.955Z,101913.53
2018-09-27T14:34:03.790Z,101913.09
2018-09-27T14:36:32.665Z,101913.47
2018-09-27T14:39:01.469Z,101915.52
2018-09-27T14:41:30.328Z,101910.98
2018-09-27T14:43:59.150Z,101920.16
2018-09-27T14:46:27.990Z,101918.16
2018-09-27T14:48:56.845Z,101904.50
2018-09-27T14:51:25.658Z,101909.66
2018-09-27T14:53:54.497Z,101902.59
2018-09-27T14:56:23.442Z,101905.36
2018-09-27T14:58:52.145Z,101901.37
2018-09-27T15:01:20.968Z,101899.13
2018-09-27T15:03:49.805Z,101897.92
2018-09-27T15:06:18.641Z,101893.69
2018-09-27T15:08:47.467Z,101890.97
2018-09-27T15:11:16.306Z,101887.02
2018-09-27T15:13:45.171Z,101877.95
2018-09-27T15:16:14.072Z,101878.13
2018-09-27T15:18:42.848Z,101874.32
2018-09-27T15:21:11.713Z,101869.22
2018-09-27T15:23:40.604Z,101867.12
2018-09-27T15:26:09.385Z,101866.26
2018-09-27T15:28:38.211Z,101867.40
2018-09-27T15:31:07.257Z,101860.02
2018-09-27T15:33:36.085Z,101857.45
2018-09-27T15:36:05.237Z,101859.11
2018-09-27T15:38:34.060Z,101856.77
2018-09-27T15:41:02.868Z,101854.12
2018-09-27T15:43:31.736Z,101849.43
2018-09-27T15:46:00.564Z,101852.72
2018-09-27T15:48:29.423Z,101851.22
2018-09-27T15:50:58.278Z,101847.08
2018-09-27T15:53:27.095Z,101844.84
2018-09-27T15:55:55.938Z,101845.41
2018-09-27T15:58:24.808Z,101839.25
2018-09-27T16:00:53.602Z,101836.53
2018-09-27T16:03:22.422Z,101843.63
2018-09-27T16:05:51.255Z,101840.64
2018-09-27T16:08:20.115Z,101843.77
2018-09-27T16:10:48.935Z,101838.40
2018-09-27T16:13:17.788Z,101835.92
2018-09-27T16:15:46.628Z,101839.34
2018-09-27T16:18:15.469Z,101837.52
2018-09-27T16:20:44.341Z,101834.31
2018-09-27T16:23:13.148Z,101831.86
2018-09-27T16:25:41.988Z,101831.77
2018-09-27T16:28:10.834Z,101834.38
2018-09-27T16:30:39.655Z,101829.80
2018-09-27T16:33:08.521Z,101825.23
2018-09-27T16:35:37.344Z,101827.67
2018-09-27T16:38:06.490Z,101823.80
2018-09-27T16:40:35.320Z,101823.02
2018-09-27T16:43:04.177Z,101827.55
2018-09-27T16:45:33.105Z,101822.42
2018-09-27T16:48:02.121Z,101817.20
2018-09-27T16:50:30.943Z,101814.67
2018-09-27T16:52:59.768Z,101815.43
2018-09-27T16:55:28.556Z,101807.25
2018-09-27T16:57:57.387Z,101809.09
2018-09-27T17:00:26.210Z,101805.94
2018-09-27T17:02:56.596Z,101805.48
2018-09-27T17:05:25.464Z,101804.83
2018-09-27T17:07:54.237Z,101806.58
2018-09-27T17:10:23.084Z,101794.95
2018-09-27T17:12:51.919Z,101803.42
2018-09-27T17:15:20.759Z,101801.37
2018-09-27T17:17:49.584Z,101797.72
2018-09-27T17:20:18.415Z,101801.89
2018-09-27T17:22:47.232Z,101794.66
2018-09-27T17:25:16.081Z,101794.82
2018-09-27T17:27:44.944Z,101790.84
2018-09-27T17:30:13.739Z,101795.14
2018-09-27T17:32:42.574Z,101792.22
2018-09-27T17:35:11.409Z,101784.82
2018-09-27T17:37:40.272Z,101777.73
2018-09-27T17:40:09.057Z,101778.69
2018-09-27T17:42:37.865Z,101781.50
2018-09-27T17:45:06.713Z,101781.20
2018-09-27T17:47:35.545Z,101776.86
2018-09-27T17:50:04.410Z,101785.72
2018-09-27T17:52:33.240Z,101779.81
2018-09-27T17:55:02.082Z,101778.20
2018-09-27T17:57:30.935Z,101773.70
2018-09-27T17:59:59.793Z,101784.69
2018-09-27T18:02:28.686Z,101781.19
2018-09-27T18:04:57.513Z,101785.75
2018-09-27T18:07:26.438Z,101790.66
2018-09-27T18:09:55.227Z,101787.02
2018-09-27T18:12:24.075Z,101791.56
2018-09-27T18:14:52.945Z,101798.71
2018-09-27T18:17:21.790Z,101802.39
2018-09-27T18:19:50.630Z,101793.80
2018-09-27T18:22:19.465Z,101799.37
2018-09-27T18:24:48.299Z,101798.77
2018-09-27T18:27:17.143Z,101804.48
2018-09-27T18:29:45.990Z,101804.27
2018-09-27T18:32:14.866Z,101807.58
2018-09-27T18:34:43.837Z,101815.46
2018-09-27T18:37:12.575Z,101805.95
2018-09-27T18:39:41.346Z,101813.47
2018-09-27T18:42:10.183Z,101808.16
2018-09-27T18:44:39.041Z,101810.77
2018-09-27T18:47:07.938Z,101805.91
2018-09-27T18:49:36.791Z,101806.17
2018-09-27T18:52:05.643Z,101807.84
2018-09-27T18:54:34.482Z,101812.78
2018-09-27T18:57:03.324Z,101813.14
2018-09-27T18:59:32.172Z,101813.72
2018-09-27T19:02:01.031Z,101815.72
2018-09-27T19:04:29.887Z,101818.34
2018-09-27T19:06:58.747Z,101813.30
2018-09-27T19:09:27.625Z,101820.00
2018-09-27T19:11:56.444Z,101820.23
2018-09-27T19:14:25.292Z,101809.80
2018-09-27T19:16:54.230Z,101797.77
2018-09-27T19:19:22.984Z,101803.17
2018-09-27T19:21:51.791Z,101798.58
2018-09-27T19:24:20.618Z,101796.22
2018-09-27T19:26:49.452Z,101791.53
2018-09-27T19:29:18.262Z,101794.64
2018-09-27T19:31:47.097Z,101792.98
2018-09-27T19:34:15.912Z,101791.42
2018-09-27T19:36:44.726Z,101791.00
2018-09-27T19:39:13.664Z,101791.54
2018-09-27T19:41:42.444Z,101792.24
2018-09-27T19:44:11.291Z,101797.91
2018-09-27T19:46:40.164Z,101797.81
2018-09-27T19:49:09.107Z,101797.18
2018-09-27T19:51:37.961Z,101794.66
2018-09-27T19:54:06.778Z,101799.31
2018-09-27T19:56:35.620Z,101807.14
2018-09-27T19:59:04.440Z,101818.80
2018-09-27T20:01:33.260Z,101817.86
2018-09-27T20:04:02.179Z,101813.73
2018-09-27T20:06:30.961Z,101810.91
2018-09-27T20:08:59.807Z,101804.06
2018-09-27T20:11:28.709Z,101799.66
2018-09-27T20:13:57.547Z,101795.03
2018-09-27T20:16:26.392Z,101793.95
2018-09-27T20:18:55.198Z,101797.59
2018-09-27T20:21:24.032Z,101805.09
2018-09-27T20:23:52.947Z,101800.46
2018-09-27T20:26:21.764Z,101799.29
2018-09-27T20:28:50.598Z,101798.10
2018-09-27T20:31:19.488Z,101804.30
2018-09-27T20:33:48.301Z,101808.02
2018-09-27T20:36:17.148Z,101804.34
2018-09-27T20:38:45.963Z,101809.83
2018-09-27T20:41:14.809Z,101808.47
2018-09-27T20:43:43.641Z,101812.74
2018-09-27T20:46:12.479Z,101813.64
2018-09-27T20:48:41.318Z,101809.84
2018-09-27T20:51:10.174Z,101812.55
2018-09-27T20:53:39.001Z,101815.05
2018-09-27T20:56:07.807Z,101818.12
2018-09-27T20:58:36.668Z,101818.27
2018-09-27T21:01:05.466Z,101814.08
2018-09-27T21:03:34.385Z,101816.56
2018-09-27T21:06:03.262Z,101819.26
2018-09-27T21:08:32.089Z,101813.73
2018-09-27T21:11:00.929Z,101802.48
2018-09-27T21:13:29.772Z,101799.16
2018-09-27T21:15:58.694Z,101801.02
2018-09-27T21:18:27.535Z,101795.22
2018-09-27T21:20:56.370Z,101790.11
2018-09-27T21:23:25.184Z,101795.92
2018-09-27T21:25:54.013Z,101790.98
2018-09-27T21:28:22.859Z,101783.34
2018-09-27T21:30:51.703Z,101782.02
2018-09-27T21:33:20.556Z,101785.17
2018-09-27T21:35:49.384Z,101776.43
2018-09-27T21:38:18.764Z,101779.28
2018-09-27T21:40:47.627Z,101770.62
2018-09-27T21:43:16.614Z,101770.13
2018-09-27T21:45:45.389Z,101776.89
2018-09-27T21:48:14.220Z,101773.05
2018-09-27T21:50:43.115Z,101762.45
2018-09-27T21:53:11.895Z,101760.56
2018-09-27T21:55:40.744Z,101763.16
2018-09-27T21:58:09.567Z,101766.51
2018-09-27T22:00:38.428Z,101765.61
2018-09-27T22:03:07.249Z,101748.33
2018-09-27T22:05:36.102Z,101757.06
2018-09-27T22:08:04.935Z,101773.44
2018-09-27T22:10:33.782Z,101764.82
2018-09-27T22:13:02.616Z,101763.69
2018-09-27T22:15:31.483Z,101764.45
2018-09-27T22:18:00.306Z,101764.67
2018-09-27T22:20:29.140Z,101766.36
2018-09-27T22:22:57.989Z,101767.53
2018-09-27T22:25:26.842Z,101765.77
2018-09-27T22:27:55.681Z,101763.92
2018-09-27T22:30:24.500Z,101760.19
2018-09-27T22:32:53.345Z,101754.64
2018-09-27T22:35:22.204Z,101750.20
2018-09-27T22:37:51.035Z,101748.95
2018-09-27T22:40:19.871Z,101749.57
2018-09-27T22:42:48.696Z,101751.23
2018-09-27T22:45:17.542Z,101752.58
2018-09-27T22:47:46.364Z,101760.16
2018-09-27T22:50:15.189Z,101765.55
2018-09-27T22:52:44.043Z,101755.33
2018-09-27T22:55:12.890Z,101752.13
2018-09-27T22:57:41.741Z,101753.83
2018-09-27T23:00:10.594Z,101751.34
2018-09-27T23:02:39.454Z,101748.84
2018-09-27T23:05:08.284Z,101742.63
2018-09-27T23:07:37.085Z,101749.73
2018-09-27T23:10:05.932Z,101753.60
2018-09-27T23:12:34.758Z,101745.49
2018-09-27T23:15:03.611Z,101742.78
2018-09-27T23:17:32.437Z,101747.55
2018-09-27T23:20:01.251Z,101741.53
2018-09-27T23:22:30.083Z,101732.89
2018-09-27T23:24:58.944Z,101739.31
2018-09-27T23:27:27.776Z,101731.28
2018-09-27T23:29:56.623Z,101727.45
2018-09-27T23:32:25.454Z,101723.98
2018-09-27T23:34:54.282Z,101737.75
2018-09-27T23:37:23.144Z,101735.68
2018-09-27T23:39:51.969Z,101749.23
2018-09-27T23:42:20.802Z,101763.58
2018-09-27T23:44:49.621Z,101757.30
2018-09-27T23:47:18.451Z,101751.45
2018-09-27T23:49:47.276Z,101761.84
2018-09-27T23:52:16.122Z,101753.83
2018-09-27T23:54:44.989Z,101762.69
2018-09-27T23:57:13.856Z,101768.98
2018-09-27T23:59:42.682Z,101761.34
